Time;durP1;ratioP1;P1;durP2;ratioP2;P2;SDS_P1;SDS_P2;PMS_P1;PMS_P2;Temp;Humidity;BMP_temperature;BMP_pressure;BME280_temperature;BME280_humidity;BME280_pressure;Samples;Min_cycle;Max_cycle;Signal;HPM_P1;HPM_P2
2022/11/09 00:01:20;;;;;;;1.92;1.00;;;14.70;99.90;;;;;;4987594;28;20056;-57
2022/11/09 00:03:46;;;;;;;5.47;1.60;;;14.70;99.90;;;;;;4985129;28;20484;-58
2022/11/09 00:06:13;;;;;;;4.28;1.10;;;14.70;99.90;;;;;;4989022;28;20062;-58
2022/11/09 00:08:39;;;;;;;5.28;1.15;;;14.70;99.90;;;;;;4982894;28;20030;-58
2022/11/09 00:11:07;;;;;;;3.33;1.45;;;14.70;99.90;;;;;;4988392;28;20396;-58
2022/11/09 00:13:40;;;;;;;1.67;0.77;;;14.60;99.90;;;;;;4980907;28;20042;-58
2022/11/09 00:16:07;;;;;;;3.42;1.25;;;14.60;99.90;;;;;;4989189;28;20053;-58
2022/11/09 00:18:34;;;;;;;2.08;1.10;;;14.60;99.90;;;;;;4995065;28;20038;-58
2022/11/09 00:21:09;;;;;;;1.25;1.13;;;14.60;99.90;;;;;;4989268;28;20046;-58
2022/11/09 00:23:35;;;;;;;2.08;1.13;;;14.60;99.90;;;;;;4983378;28;20085;-57
2022/11/09 00:26:02;;;;;;;6.47;1.10;;;14.60;99.90;;;;;;4988652;28;20038;-59
2022/11/09 00:28:27;;;;;;;1.15;0.95;;;14.60;99.90;;;;;;4989638;28;20464;-58
2022/11/09 00:30:58;;;;;;;3.83;1.30;;;14.60;99.90;;;;;;4986842;28;20022;-58
2022/11/09 00:33:24;;;;;;;1.25;1.10;;;14.50;99.90;;;;;;4990100;28;20129;-58
2022/11/09 00:35:49;;;;;;;10.30;1.50;;;14.50;99.90;;;;;;4980588;28;20493;-58
2022/11/09 00:38:15;;;;;;;2.45;1.20;;;14.50;99.90;;;;;;4990522;28;20029;-57
2022/11/09 00:40:40;;;;;;;1.30;1.00;;;14.50;99.90;;;;;;4987856;28;20062;-56
2022/11/09 00:43:06;;;;;;;4.68;1.15;;;14.50;99.90;;;;;;5000270;28;20057;-58
2022/11/09 00:45:31;;;;;;;8.55;1.42;;;14.50;99.90;;;;;;4989734;28;20030;-57
2022/11/09 00:47:57;;;;;;;1.65;1.10;;;14.50;99.90;;;;;;4985572;28;20058;-58
2022/11/09 00:50:22;;;;;;;3.42;1.42;;;14.40;99.90;;;;;;4986188;28;20069;-57
2022/11/09 00:52:48;;;;;;;2.58;0.88;;;14.40;99.90;;;;;;4991968;28;20091;-57
2022/11/09 00:55:15;;;;;;;1.52;1.10;;;14.40;99.90;;;;;;4982551;28;20035;-58
2022/11/09 00:57:40;;;;;;;4.15;1.42;;;14.50;99.90;;;;;;4988737;28;20054;-57
2022/11/09 01:00:06;;;;;;;5.00;1.40;;;14.50;99.90;;;;;;4988023;28;20065;-57
2022/11/09 01:02:32;;;;;;;8.50;1.10;;;14.50;99.90;;;;;;4985250;28;20045;-58
2022/11/09 01:04:58;;;;;;;3.60;1.35;;;14.60;99.90;;;;;;4988647;28;20034;-55
2022/11/09 01:07:24;;;;;;;1.98;1.10;;;14.60;99.90;;;;;;4988747;28;20057;-55
2022/11/09 01:09:50;;;;;;;1.90;1.10;;;14.60;99.90;;;;;;4987976;28;20577;-58
2022/11/09 01:12:15;;;;;;;5.03;1.40;;;14.60;99.90;;;;;;4987310;28;20034;-57
2022/11/09 01:14:41;;;;;;;1.73;1.00;;;14.60;99.90;;;;;;4988841;28;20030;-58
2022/11/09 01:17:06;;;;;;;5.75;1.20;;;14.60;99.90;;;;;;4990675;28;20050;-58
2022/11/09 01:19:32;;;;;;;6.00;1.20;;;14.80;99.90;;;;;;4992739;28;20037;-57
2022/11/09 01:21:57;;;;;;;3.17;1.20;;;14.80;99.90;;;;;;4990788;28;20093;-58
2022/11/09 01:24:23;;;;;;;1.05;0.80;;;14.80;99.90;;;;;;4988011;28;20038;-58
2022/11/09 01:26:48;;;;;;;4.03;1.20;;;14.70;99.90;;;;;;4989026;28;20093;-58
2022/11/09 01:29:14;;;;;;;5.47;0.93;;;14.70;99.90;;;;;;4988229;28;20041;-58
2022/11/09 01:31:40;;;;;;;6.20;1.40;;;14.60;99.90;;;;;;4987855;28;20485;-58
2022/11/09 01:34:05;;;;;;;2.47;1.30;;;14.60;99.90;;;;;;4988585;28;20030;-58
2022/11/09 01:36:31;;;;;;;5.38;1.25;;;14.50;99.90;;;;;;4994706;28;20105;-58
2022/11/09 01:38:56;;;;;;;5.47;1.13;;;14.50;99.90;;;;;;4981800;28;20500;-58
2022/11/09 01:41:25;;;;;;;3.30;1.27;;;14.30;99.90;;;;;;4986694;28;20457;-58
2022/11/09 01:44:09;;;;;;;2.88;1.05;;;14.30;99.90;;;;;;4991295;28;20041;-55
2022/11/09 01:46:53;;;;;;;6.57;1.20;;;14.20;99.90;;;;;;4986186;28;20022;-58
2022/11/09 01:49:36;;;;;;;2.50;0.80;;;14.20;99.90;;;;;;4987030;28;20129;-59
2022/11/09 01:52:15;;;;;;;3.28;0.98;;;14.10;99.90;;;;;;4989788;28;20100;-56
2022/11/09 01:54:45;;;;;;;2.58;0.90;;;14.10;99.90;;;;;;4985468;28;20504;-56
2022/11/09 01:57:18;;;;;;;2.72;1.27;;;14.10;99.90;;;;;;4988537;28;20524;-56
2022/11/09 01:59:50;;;;;;;5.97;0.80;;;14.10;99.90;;;;;;4991973;28;20027;-57
2022/11/09 02:02:15;;;;;;;2.30;1.00;;;14.00;99.90;;;;;;4981751;28;20049;-57
2022/11/09 02:04:52;;;;;;;1.38;0.95;;;14.00;99.90;;;;;;4982217;28;20022;-58
2022/11/09 02:07:20;;;;;;;1.58;0.88;;;14.00;99.90;;;;;;4986597;28;20030;-58
2022/11/09 02:10:00;;;;;;;1.08;0.80;;;13.90;99.90;;;;;;4987781;28;20101;-58
2022/11/09 02:12:28;;;;;;;3.25;0.93;;;13.90;99.90;;;;;;4983721;28;20061;-58
2022/11/09 02:14:55;;;;;;;2.05;0.70;;;13.80;99.90;;;;;;4987973;28;20378;-56
2022/11/09 02:17:21;;;;;;;2.10;0.98;;;13.80;99.90;;;;;;4987376;28;20050;-58
2022/11/09 02:19:46;;;;;;;13.77;1.88;;;13.80;99.90;;;;;;4985988;28;20062;-57
2022/11/09 02:22:12;;;;;;;8.00;1.00;;;13.80;99.90;;;;;;4990282;28;20601;-58
2022/11/09 02:24:38;;;;;;;1.73;0.80;;;13.90;99.90;;;;;;4992641;28;20029;-58
2022/11/09 02:27:05;;;;;;;2.35;1.00;;;13.90;99.90;;;;;;4990913;28;20121;-57
2022/11/09 02:29:40;;;;;;;4.20;1.33;;;14.00;99.90;;;;;;4990565;28;20082;-56
2022/11/09 02:32:11;;;;;;;3.65;1.33;;;14.00;99.90;;;;;;4988412;28;20497;-57
2022/11/09 02:34:36;;;;;;;1.80;0.90;;;14.00;99.90;;;;;;4990243;28;20118;-55
2022/11/09 02:37:02;;;;;;;2.05;0.90;;;13.90;99.90;;;;;;4995834;28;20420;-56
2022/11/09 02:39:28;;;;;;;3.83;1.40;;;13.80;99.90;;;;;;4993544;28;20536;-57
2022/11/09 02:42:06;;;;;;;3.17;1.13;;;13.80;99.90;;;;;;4991881;28;20420;-58
2022/11/09 02:44:38;;;;;;;4.00;1.20;;;13.80;99.90;;;;;;4993048;28;20026;-57
2022/11/09 02:47:03;;;;;;;5.18;0.90;;;13.80;99.90;;;;;;4995304;28;20493;-58
2022/11/09 02:49:29;;;;;;;1.63;1.15;;;13.80;99.90;;;;;;4995062;28;20037;-56
2022/11/09 02:51:54;;;;;;;2.25;1.10;;;13.90;99.90;;;;;;4999028;28;20026;-58
2022/11/09 02:54:20;;;;;;;2.50;1.10;;;13.90;99.90;;;;;;4994812;28;20544;-58
2022/11/09 02:56:45;;;;;;;2.97;1.20;;;13.90;99.90;;;;;;4991638;28;20061;-58
2022/11/09 02:59:11;;;;;;;3.50;1.13;;;13.90;99.90;;;;;;4993003;28;20073;-56
2022/11/09 03:01:36;;;;;;;3.88;1.17;;;13.90;99.90;;;;;;4992722;28;20030;-58
2022/11/09 03:04:02;;;;;;;6.40;1.45;;;14.00;99.90;;;;;;4992055;28;20064;-58
2022/11/09 03:06:34;;;;;;;2.17;0.90;;;14.00;99.90;;;;;;4993803;28;20030;-58
2022/11/09 03:09:01;;;;;;;4.45;1.10;;;13.90;99.90;;;;;;4991825;28;20109;-57
2022/11/09 03:11:27;;;;;;;3.92;1.17;;;13.90;99.90;;;;;;4989025;28;20023;-58
2022/11/09 03:13:52;;;;;;;4.25;0.95;;;13.80;99.90;;;;;;4983546;28;20081;-57
2022/11/09 03:16:18;;;;;;;7.07;1.55;;;13.90;99.90;;;;;;4985533;28;20058;-58
2022/11/09 03:18:43;;;;;;;1.58;0.70;;;13.90;99.90;;;;;;4992248;28;20105;-58
2022/11/09 03:21:09;;;;;;;1.42;1.08;;;13.80;99.90;;;;;;4990871;28;20042;-58
2022/11/09 03:23:34;;;;;;;2.45;0.98;;;13.80;99.90;;;;;;4985899;28;20396;-57
2022/11/09 03:26:00;;;;;;;3.40;1.20;;;13.80;99.90;;;;;;4994964;28;20048;-57
2022/11/09 03:28:25;;;;;;;3.80;0.90;;;13.80;99.90;;;;;;4996065;28;20029;-58
2022/11/09 03:30:51;;;;;;;4.13;1.27;;;13.80;99.90;;;;;;4989241;28;20033;-58
2022/11/09 03:33:17;;;;;;;5.13;1.35;;;13.80;99.90;;;;;;4969379;28;20036;-58
2022/11/09 03:35:43;;;;;;;2.20;0.90;;;13.90;99.90;;;;;;4993984;28;20030;-58
2022/11/09 03:38:08;;;;;;;1.65;0.93;;;13.90;99.90;;;;;;4993882;28;20496;-58
2022/11/09 03:40:34;;;;;;;4.43;1.60;;;14.00;99.90;;;;;;4992933;28;20062;-57
2022/11/09 03:42:59;;;;;;;3.97;1.05;;;14.00;99.90;;;;;;4989897;28;20026;-58
2022/11/09 03:45:26;;;;;;;3.10;0.93;;;14.10;99.90;;;;;;4989135;28;20056;-57
2022/11/09 03:47:55;;;;;;;3.13;1.02;;;14.20;99.90;;;;;;4987143;28;20045;-57
2022/11/09 03:50:21;;;;;;;3.38;1.23;;;14.30;99.90;;;;;;4987744;28;20393;-58
2022/11/09 03:52:47;;;;;;;2.90;1.02;;;14.30;99.90;;;;;;4993853;28;20034;-58
2022/11/09 03:55:13;;;;;;;3.78;0.98;;;14.30;99.90;;;;;;4984254;28;20405;-58
2022/11/09 03:57:39;;;;;;;3.25;1.27;;;14.30;99.90;;;;;;4994843;28;20022;-55
2022/11/09 04:00:06;;;;;;;4.63;1.17;;;14.30;99.90;;;;;;4985349;28;20401;-57
2022/11/09 04:02:32;;;;;;;7.47;1.02;;;14.30;99.90;;;;;;4996369;28;20040;-56
2022/11/09 04:04:57;;;;;;;1.50;0.95;;;14.40;99.90;;;;;;4985435;28;20361;-58
2022/11/09 04:07:23;;;;;;;2.80;1.17;;;14.40;99.90;;;;;;4992278;28;20116;-58
2022/11/09 04:09:48;;;;;;;3.28;0.93;;;14.40;99.90;;;;;;4990786;28;20025;-55
2022/11/09 04:12:14;;;;;;;5.22;1.00;;;14.50;99.90;;;;;;4996707;28;20489;-58
2022/11/09 04:14:39;;;;;;;4.40;1.40;;;14.50;99.90;;;;;;4991296;28;20037;-57
2022/11/09 04:17:05;;;;;;;9.40;1.25;;;14.50;99.90;;;;;;4985024;28;20030;-58
2022/11/09 04:19:30;;;;;;;4.38;1.30;;;14.50;99.90;;;;;;4987105;28;20571;-55
2022/11/09 04:21:56;;;;;;;3.13;1.48;;;14.50;99.90;;;;;;4989593;28;20030;-58
2022/11/09 04:24:21;;;;;;;4.53;1.58;;;14.50;99.90;;;;;;4991834;28;20030;-57
2022/11/09 04:26:47;;;;;;;4.55;0.95;;;14.40;99.90;;;;;;4993682;28;20030;-58
2022/11/09 04:29:13;;;;;;;3.17;1.00;;;14.50;99.90;;;;;;4986462;28;20038;-57
2022/11/09 04:31:39;;;;;;;4.88;1.00;;;14.50;99.90;;;;;;4989811;28;20416;-58
2022/11/09 04:34:04;;;;;;;2.03;0.80;;;14.40;99.90;;;;;;4994443;28;20034;-57
2022/11/09 04:36:30;;;;;;;2.15;1.00;;;14.40;99.90;;;;;;5000081;28;20022;-57
2022/11/09 04:38:55;;;;;;;3.22;1.20;;;14.50;99.90;;;;;;4990601;28;20038;-57
2022/11/09 04:41:21;;;;;;;2.95;1.02;;;14.50;99.90;;;;;;4993905;28;20109;-55
2022/11/09 04:43:47;;;;;;;0.88;0.52;;;14.50;99.90;;;;;;4991319;28;20026;-57
2022/11/09 04:46:12;;;;;;;4.93;1.10;;;14.50;99.90;;;;;;4996708;28;20081;-57
2022/11/09 04:48:38;;;;;;;8.48;1.23;;;14.50;99.90;;;;;;4991996;28;20073;-57
2022/11/09 04:51:06;;;;;;;3.30;1.20;;;14.40;99.90;;;;;;4994306;28;20097;-55
2022/11/09 04:53:33;;;;;;;3.78;1.20;;;14.50;99.90;;;;;;4986782;28;20057;-56
2022/11/09 04:55:58;;;;;;;3.53;1.08;;;14.40;99.90;;;;;;4992326;28;20038;-56
2022/11/09 04:58:24;;;;;;;5.15;1.38;;;14.30;99.90;;;;;;4991577;28;20582;-57
2022/11/09 05:00:50;;;;;;;5.30;1.00;;;14.20;99.90;;;;;;4988349;28;20488;-56
2022/11/09 05:03:16;;;;;;;5.10;1.25;;;14.10;99.90;;;;;;4988905;28;20088;-57
2022/11/09 05:05:41;;;;;;;4.43;1.00;;;14.00;99.90;;;;;;4983545;28;20522;-58
2022/11/09 05:08:07;;;;;;;6.68;1.63;;;13.80;99.90;;;;;;5017786;23;20393;-68
2022/11/09 05:10:34;;;;;;;3.80;1.00;;;13.70;99.90;;;;;;5011954;28;20522;-68
2022/11/09 05:13:02;;;;;;;3.13;1.15;;;13.70;99.90;;;;;;4989145;28;20026;-65
2022/11/09 05:15:27;;;;;;;4.35;1.80;;;13.60;99.90;;;;;;5003460;28;20481;-65
2022/11/09 05:17:53;;;;;;;4.82;1.77;;;13.60;99.90;;;;;;4995816;28;20038;-65
2022/11/09 05:20:19;;;;;;;6.22;1.63;;;13.40;99.90;;;;;;4979650;28;20030;-65
2022/11/09 05:25:29;;;;;;;4.25;1.83;;;13.40;99.90;;;;;;4984675;28;20463;-64
2022/11/09 05:27:55;;;;;;;5.25;2.30;;;13.30;99.90;;;;;;4974592;28;20031;-64
2022/11/09 05:30:20;;;;;;;8.07;2.28;;;13.40;99.90;;;;;;4983678;28;20017;-65
2022/11/09 05:32:46;;;;;;;4.15;2.22;;;13.40;99.90;;;;;;4992285;28;20037;-64
2022/11/09 05:35:12;;;;;;;13.10;2.75;;;13.30;99.90;;;;;;4984976;28;20030;-63
2022/11/09 05:37:38;;;;;;;9.25;3.13;;;13.20;99.90;;;;;;4982025;28;20161;-64
2022/11/09 05:40:05;;;;;;;9.40;2.33;;;13.20;99.90;;;;;;4978417;28;20069;-65
2022/11/09 05:42:31;;;;;;;8.85;2.30;;;13.00;99.90;;;;;;4993840;28;20381;-65
2022/11/09 05:44:56;;;;;;;5.75;2.17;;;13.00;99.90;;;;;;4979451;28;20045;-65
2022/11/09 05:47:22;;;;;;;4.43;1.70;;;12.90;99.90;;;;;;4983894;28;20058;-65
2022/11/09 05:49:48;;;;;;;7.30;2.60;;;12.90;99.90;;;;;;4975898;28;20026;-65
2022/11/09 05:52:13;;;;;;;6.28;2.00;;;12.90;99.90;;;;;;4974232;28;20061;-65
2022/11/09 05:54:39;;;;;;;6.75;2.35;;;12.80;99.90;;;;;;4977733;28;20033;-66
2022/11/09 05:57:04;;;;;;;7.15;2.13;;;12.80;99.90;;;;;;4980169;28;20039;-65
2022/11/09 05:59:30;;;;;;;7.45;2.58;;;12.70;99.90;;;;;;4977042;28;20121;-65
2022/11/09 06:01:55;;;;;;;7.72;2.42;;;12.60;99.90;;;;;;4986734;28;20018;-65
2022/11/09 06:04:21;;;;;;;9.85;2.47;;;12.60;99.90;;;;;;4968134;28;20073;-64
2022/11/09 06:06:46;;;;;;;6.25;2.33;;;12.60;99.90;;;;;;4985640;28;20030;-65
2022/11/09 06:09:12;;;;;;;10.45;3.20;;;12.60;99.90;;;;;;4981057;28;20041;-65
2022/11/09 06:11:37;;;;;;;15.00;2.90;;;12.60;99.90;;;;;;4985405;28;20042;-65
2022/11/09 06:14:03;;;;;;;12.07;2.50;;;12.50;99.90;;;;;;4980455;28;20035;-66
2022/11/09 06:16:28;;;;;;;12.80;3.47;;;12.60;99.90;;;;;;4978405;28;20026;-66
2022/11/09 06:18:54;;;;;;;4.63;2.70;;;12.60;99.90;;;;;;4977806;28;20385;-65
2022/11/09 06:21:20;;;;;;;12.18;3.15;;;12.60;99.90;;;;;;4959142;28;20472;-66
2022/11/09 06:23:45;;;;;;;10.90;2.65;;;12.60;99.90;;;;;;4980477;28;20106;-67
2022/11/09 06:26:12;;;;;;;4.55;2.33;;;12.60;99.90;;;;;;4990051;28;20098;-65
2022/11/09 06:28:38;;;;;;;5.22;2.50;;;12.70;99.90;;;;;;4975222;28;20113;-67
2022/11/09 06:31:06;;;;;;;5.93;2.35;;;12.80;99.90;;;;;;4981949;28;20097;-67
2022/11/09 06:33:33;;;;;;;7.43;1.63;;;12.90;99.90;;;;;;4976614;28;20041;-67
2022/11/09 06:35:59;;;;;;;3.40;1.50;;;12.90;99.90;;;;;;4965990;28;20026;-66
2022/11/09 06:38:25;;;;;;;8.20;1.67;;;13.00;99.90;;;;;;4979802;28;20038;-66
2022/11/09 06:40:52;;;;;;;10.05;2.10;;;13.10;99.90;;;;;;4976488;28;20477;-67
2022/11/09 06:43:18;;;;;;;4.35;1.60;;;13.10;99.90;;;;;;4978015;28;20026;-66
2022/11/09 06:45:43;;;;;;;6.25;1.85;;;13.00;99.90;;;;;;4974411;28;20035;-66
2022/11/09 06:48:09;;;;;;;8.38;1.30;;;13.10;99.90;;;;;;4983357;28;20038;-66
2022/11/09 06:50:35;;;;;;;4.93;1.40;;;13.00;99.90;;;;;;4969768;28;20033;-66
2022/11/09 06:53:03;;;;;;;3.65;1.45;;;13.00;99.90;;;;;;4976621;28;20042;-66
2022/11/09 06:55:31;;;;;;;7.03;1.95;;;12.90;99.90;;;;;;4973128;28;20027;-66
2022/11/09 06:57:57;;;;;;;12.43;1.60;;;12.80;99.90;;;;;;4967659;28;20077;-67
2022/11/09 07:00:24;;;;;;;8.35;1.60;;;12.70;99.90;;;;;;4986135;28;20109;-66
2022/11/09 07:02:49;;;;;;;5.53;1.85;;;12.60;99.90;;;;;;4979548;28;20119;-66
2022/11/09 07:05:15;;;;;;;4.15;1.73;;;12.50;99.90;;;;;;4988650;28;20177;-67
2022/11/09 07:07:41;;;;;;;8.43;1.83;;;12.50;99.90;;;;;;4983413;28;20027;-67
2022/11/09 07:10:07;;;;;;;6.88;1.75;;;12.30;99.90;;;;;;4987220;28;20022;-67
2022/11/09 07:12:33;;;;;;;10.95;2.17;;;12.20;99.90;;;;;;4983584;28;20084;-67
2022/11/09 07:14:59;;;;;;;4.25;1.58;;;12.10;99.90;;;;;;4984285;28;20018;-66
2022/11/09 07:17:24;;;;;;;11.35;2.85;;;12.10;99.90;;;;;;4984745;28;20026;-67
2022/11/09 07:19:50;;;;;;;7.90;1.90;;;12.00;99.90;;;;;;4987938;28;20037;-67
2022/11/09 07:22:15;;;;;;;9.60;1.88;;;12.00;99.90;;;;;;4985713;28;20042;-67
2022/11/09 07:24:41;;;;;;;17.23;2.03;;;12.00;99.90;;;;;;4978432;28;20030;-67
2022/11/09 07:27:06;;;;;;;6.40;2.20;;;12.00;99.90;;;;;;4982838;28;20027;-67
2022/11/09 07:29:32;;;;;;;5.60;1.85;;;12.00;99.90;;;;;;4978466;28;20040;-67
2022/11/09 07:31:57;;;;;;;7.15;2.40;;;12.00;99.90;;;;;;4981406;28;20060;-67
2022/11/09 07:34:23;;;;;;;4.13;1.80;;;12.00;99.90;;;;;;4980845;28;20036;-66
2022/11/09 07:36:51;;;;;;;5.68;2.42;;;12.00;99.90;;;;;;4984251;28;20392;-66
2022/11/09 07:39:17;;;;;;;9.15;1.83;;;12.00;99.90;;;;;;4978819;28;20077;-66
2022/11/09 07:41:42;;;;;;;6.60;2.35;;;12.10;99.90;;;;;;4986763;28;20569;-67
2022/11/09 07:44:08;;;;;;;7.05;2.00;;;12.10;99.90;;;;;;4981880;28;20030;-66
2022/11/09 07:46:34;;;;;;;6.47;2.25;;;12.20;99.90;;;;;;4982262;28;20033;-67
2022/11/09 07:48:59;;;;;;;5.43;2.25;;;12.20;99.90;;;;;;4978314;28;20019;-67
2022/11/09 07:51:25;;;;;;;6.60;2.05;;;12.30;99.90;;;;;;4984120;28;20030;-54
2022/11/09 07:53:51;;;;;;;3.65;2.15;;;12.30;99.90;;;;;;4981389;28;20496;-55
2022/11/09 07:56:16;;;;;;;7.00;2.10;;;12.40;99.90;;;;;;4981495;28;20085;-56
2022/11/09 07:58:42;;;;;;;6.30;2.00;;;12.40;99.90;;;;;;4975617;28;20022;-55
2022/11/09 08:01:10;;;;;;;8.32;2.25;;;12.40;99.90;;;;;;4984283;28;20034;-57
2022/11/09 08:03:36;;;;;;;8.93;2.35;;;12.50;99.90;;;;;;4979704;28;20042;-56
2022/11/09 08:06:02;;;;;;;5.28;1.73;;;12.70;99.90;;;;;;4985796;28;20031;-58
2022/11/09 08:08:27;;;;;;;6.10;2.03;;;12.70;99.90;;;;;;4975711;28;20077;-56
2022/11/09 08:10:55;;;;;;;7.57;2.00;;;12.80;99.90;;;;;;4990818;28;20058;-56
2022/11/09 08:13:21;;;;;;;3.80;2.08;;;12.90;99.90;;;;;;4992362;28;20049;-57
2022/11/09 08:15:47;;;;;;;16.35;2.20;;;13.00;99.90;;;;;;4980110;28;20594;-53
2022/11/09 08:18:15;;;;;;;7.30;2.13;;;13.00;99.90;;;;;;4989790;28;20033;-56
2022/11/09 08:20:41;;;;;;;7.85;2.08;;;13.10;99.90;;;;;;4985651;28;20035;-57
2022/11/09 08:23:09;;;;;;;10.15;2.70;;;13.00;99.90;;;;;;4983012;28;20077;-57
2022/11/09 08:25:35;;;;;;;13.48;2.13;;;13.00;99.90;;;;;;4974597;28;20065;-57
2022/11/09 08:28:02;;;;;;;6.97;2.13;;;13.00;99.90;;;;;;4984619;28;20030;-55
2022/11/09 08:30:28;;;;;;;10.73;2.60;;;13.10;99.90;;;;;;4978751;28;20069;-57
2022/11/09 08:32:53;;;;;;;7.80;2.65;;;13.10;99.90;;;;;;4979727;28;20370;-56
2022/11/09 08:35:21;;;;;;;5.20;1.88;;;13.10;99.90;;;;;;4978965;28;20054;-58
2022/11/09 08:37:49;;;;;;;5.70;2.15;;;13.20;99.90;;;;;;4978190;28;20110;-55
2022/11/09 08:40:17;;;;;;;10.40;2.30;;;13.30;99.90;;;;;;4979447;28;20056;-57
2022/11/09 08:42:43;;;;;;;9.95;2.63;;;13.30;99.90;;;;;;4974789;28;20110;-58
2022/11/09 08:45:09;;;;;;;6.40;3.10;;;13.40;99.90;;;;;;4978863;28;20123;-55
2022/11/09 08:47:35;;;;;;;10.70;2.58;;;13.40;99.90;;;;;;4976717;28;20089;-59
2022/11/09 08:50:03;;;;;;;16.30;2.03;;;13.50;99.90;;;;;;4976966;28;20027;-59
2022/11/09 08:52:29;;;;;;;9.52;2.10;;;13.50;99.90;;;;;;4979075;28;20041;-58
2022/11/09 08:54:54;;;;;;;7.88;1.67;;;13.60;99.90;;;;;;4982487;28;20567;-55
2022/11/09 08:57:20;;;;;;;6.88;2.10;;;13.70;99.90;;;;;;4982319;28;20481;-55
2022/11/09 08:59:46;;;;;;;10.98;2.33;;;13.70;99.90;;;;;;4978012;28;20049;-59
2022/11/09 09:02:14;;;;;;;4.72;1.20;;;13.80;99.90;;;;;;4981533;28;20026;-53
2022/11/09 09:04:40;;;;;;;3.88;1.05;;;13.90;99.90;;;;;;4980892;28;20030;-55
2022/11/09 09:07:06;;;;;;;1.95;0.93;;;13.90;99.90;;;;;;4983195;28;20022;-54
2022/11/09 09:09:33;;;;;;;6.00;0.80;;;14.00;99.90;;;;;;4973642;28;20450;-56
2022/11/09 09:11:59;;;;;;;10.13;1.10;;;14.10;99.90;;;;;;4979388;28;20469;-55
2022/11/09 09:14:25;;;;;;;4.93;0.90;;;14.10;99.90;;;;;;4968309;28;20042;-57
2022/11/09 09:16:50;;;;;;;1.95;0.90;;;14.20;99.90;;;;;;4983315;28;20030;-55
2022/11/09 09:19:16;;;;;;;4.45;1.10;;;14.20;99.90;;;;;;4985305;28;20034;-53
2022/11/09 09:21:41;;;;;;;2.95;0.77;;;14.10;99.90;;;;;;4983915;28;20038;-56
2022/11/09 09:24:07;;;;;;;2.97;0.90;;;14.10;99.90;;;;;;4974898;28;20117;-53
2022/11/09 09:26:33;;;;;;;3.03;1.00;;;14.10;99.90;;;;;;4981756;28;20038;-55
2022/11/09 09:28:58;;;;;;;7.18;0.95;;;14.00;99.90;;;;;;4975496;28;20071;-55
2022/11/09 09:31:24;;;;;;;3.88;0.93;;;14.10;99.90;;;;;;4972950;28;20035;-57
2022/11/09 09:33:49;;;;;;;3.20;0.95;;;14.20;99.90;;;;;;4979076;28;20430;-55
2022/11/09 09:36:18;;;;;;;2.20;0.70;;;14.30;99.90;;;;;;4984481;28;20057;-53
2022/11/09 09:38:43;;;;;;;4.30;0.82;;;14.40;99.90;;;;;;4974862;28;20026;-53
2022/11/09 09:41:35;;;;;;;4.65;0.90;;;14.50;99.90;;;;;;4975936;28;20038;-66
2022/11/09 09:44:16;;;;;;;1.73;0.50;;;14.70;99.90;;;;;;4976558;28;20030;-65
2022/11/09 09:47:17;;;;;;;5.30;0.50;;;14.80;99.90;;;;;;4974398;28;20037;-66
2022/11/09 09:49:53;;;;;;;6.00;0.63;;;14.90;99.90;;;;;;4939094;28;20501;-67
2022/11/09 09:52:26;;;;;;;2.72;0.77;;;14.90;99.90;;;;;;4980781;28;20025;-67
2022/11/09 09:54:58;;;;;;;1.70;0.75;;;14.90;99.90;;;;;;4971413;28;20088;-67
2022/11/09 09:57:27;;;;;;;3.58;1.17;;;14.90;99.90;;;;;;4973389;28;20031;-67
2022/11/09 09:59:56;;;;;;;5.35;0.85;;;14.90;99.90;;;;;;4979326;28;20030;-65
2022/11/09 10:02:27;;;;;;;3.78;0.80;;;14.90;99.90;;;;;;4976947;28;20038;-66
2022/11/09 10:04:56;;;;;;;8.52;0.65;;;15.00;99.90;;;;;;4975147;28;20027;-67
2022/11/09 10:07:38;;;;;;;4.25;0.60;;;15.00;99.90;;;;;;4976919;28;20034;-67
2022/11/09 10:10:15;;;;;;;3.78;0.77;;;15.10;99.90;;;;;;4980528;28;20134;-67
2022/11/09 10:13:07;;;;;;;10.38;1.00;;;15.10;99.90;;;;;;4974728;28;20033;-66
2022/11/09 10:15:51;;;;;;;4.07;0.77;;;15.10;99.90;;;;;;4971335;28;20529;-66
2022/11/09 10:18:40;;;;;;;3.67;0.73;;;15.20;99.90;;;;;;4974893;28;20033;-66
2022/11/09 10:21:44;;;;;;;5.45;0.80;;;15.20;99.90;;;;;;4974992;28;20027;-67
2022/11/09 10:24:16;;;;;;;5.95;0.77;;;15.30;99.90;;;;;;4956998;28;20511;-67
2022/11/09 10:26:45;;;;;;;5.15;0.85;;;15.30;99.90;;;;;;4977856;28;20528;-67
2022/11/09 10:29:34;;;;;;;7.07;0.80;;;15.40;99.90;;;;;;4974906;28;20038;-66
2022/11/09 10:32:11;;;;;;;4.63;1.08;;;15.40;99.90;;;;;;4976474;28;20454;-68
2022/11/09 10:35:01;;;;;;;8.00;0.95;;;15.50;99.90;;;;;;4979206;28;20536;-68
2022/11/09 10:37:42;;;;;;;7.90;0.90;;;15.50;99.90;;;;;;4975710;28;20050;-67
2022/11/09 10:40:07;;;;;;;6.85;1.77;;;15.50;99.90;;;;;;4976235;28;20489;-65
2022/11/09 10:42:34;;;;;;;5.35;0.93;;;15.70;99.90;;;;;;4981980;28;20025;-66
2022/11/09 10:45:10;;;;;;;10.07;1.00;;;15.60;99.90;;;;;;4978951;28;20098;-66
2022/11/09 10:47:50;;;;;;;11.93;0.80;;;15.60;99.90;;;;;;4978681;28;20515;-66
2022/11/09 10:50:21;;;;;;;5.55;1.25;;;15.60;99.90;;;;;;4981415;28;20061;-66
2022/11/09 10:52:47;;;;;;;3.45;0.70;;;15.60;99.90;;;;;;4983570;28;20535;-67
2022/11/09 10:55:26;;;;;;;6.30;0.88;;;15.60;99.90;;;;;;4975471;28;20035;-67
2022/11/09 10:58:04;;;;;;;11.30;1.30;;;15.60;99.90;;;;;;4979003;28;20141;-67
2022/11/09 11:00:29;;;;;;;6.65;1.20;;;15.50;99.90;;;;;;4977301;28;20128;-67
2022/11/09 11:02:55;;;;;;;5.07;0.90;;;15.40;99.90;;;;;;4978082;28;20816;-66
2022/11/09 11:05:25;;;;;;;3.97;1.20;;;15.50;99.90;;;;;;4975038;28;20050;-66
2022/11/09 11:07:51;;;;;;;4.32;1.20;;;15.60;99.90;;;;;;4976377;28;20114;-66
2022/11/09 11:10:20;;;;;;;11.13;1.10;;;15.70;99.90;;;;;;4978618;28;20097;-67
2022/11/09 11:12:58;;;;;;;7.53;1.00;;;15.80;99.90;;;;;;4981106;28;20084;-66
2022/11/09 11:15:38;;;;;;;5.00;1.00;;;15.90;99.90;;;;;;4977899;28;20027;-66
2022/11/09 11:18:15;;;;;;;9.38;1.38;;;15.90;99.90;;;;;;4978649;28;20637;-66
2022/11/09 11:20:40;;;;;;;4.70;0.75;;;16.00;99.90;;;;;;4979262;28;20419;-66
2022/11/09 11:23:21;;;;;;;5.35;0.85;;;15.90;99.90;;;;;;4980753;28;20200;-67
2022/11/09 11:25:52;;;;;;;15.82;1.20;;;16.00;99.90;;;;;;4982522;28;20563;-66
2022/11/09 11:28:25;;;;;;;7.15;1.00;;;15.90;99.90;;;;;;4980223;28;20042;-66
2022/11/09 11:30:51;;;;;;;3.22;0.75;;;16.00;99.90;;;;;;4981137;28;20018;-66
2022/11/09 11:33:17;;;;;;;8.50;0.90;;;16.10;99.90;;;;;;4994851;23;20457;-57
2022/11/09 11:35:54;;;;;;;5.65;0.95;;;16.10;99.90;;;;;;5031034;28;20029;-58
2022/11/09 11:38:45;;;;;;;5.80;0.50;;;16.00;99.90;;;;;;5028804;28;20029;-58
2022/11/09 11:41:48;;;;;;;4.15;0.95;;;16.00;99.90;;;;;;5026215;28;20025;-56
2022/11/09 11:44:16;;;;;;;4.45;0.70;;;16.00;99.90;;;;;;5010519;28;20029;-57
2022/11/09 11:46:46;;;;;;;3.15;0.82;;;16.00;99.90;;;;;;4999678;28;20124;-56
2022/11/09 11:49:58;;;;;;;5.88;0.65;;;15.90;99.90;;;;;;5008382;28;20567;-57
2022/11/09 11:52:48;;;;;;;4.53;0.70;;;16.00;99.90;;;;;;4996520;28;20113;-56
2022/11/09 11:55:23;;;;;;;8.95;1.30;;;16.10;99.90;;;;;;4995855;28;20380;-56
2022/11/09 11:58:09;;;;;;;6.22;0.70;;;16.20;99.90;;;;;;5000787;28;20221;-58
2022/11/09 12:00:46;;;;;;;7.15;0.90;;;16.10;99.90;;;;;;5010528;28;20100;-57
2022/11/09 12:03:41;;;;;;;4.63;1.20;;;16.20;99.90;;;;;;5004249;28;20521;-59
2022/11/09 12:06:36;;;;;;;10.90;0.90;;;16.30;99.90;;;;;;5005666;28;20033;-56
2022/11/09 12:09:10;;;;;;;;;;;16.30;99.90;;;;;;4994971;28;20025;-56
2022/11/09 12:11:56;;;;;;;6.32;1.10;;;16.30;99.90;;;;;;4995111;28;19910;-57
2022/11/09 12:14:43;;;;;;;2.67;0.60;;;16.50;99.90;;;;;;4996364;28;20014;-54
2022/11/09 12:17:52;;;;;;;8.13;1.42;;;16.60;99.90;;;;;;5011065;28;20025;-54
2022/11/09 12:20:30;;;;;;;12.82;1.77;;;16.60;99.90;;;;;;4960951;28;20046;-58
2022/11/09 12:23:14;;;;;;;5.70;0.63;;;16.80;99.90;;;;;;4983213;28;20424;-59
2022/11/09 12:26:08;;;;;;;6.60;0.77;;;16.80;99.90;;;;;;5007199;28;20022;-56
2022/11/09 12:29:01;;;;;;;6.30;1.30;;;16.80;99.90;;;;;;5002849;28;20101;-54
2022/11/09 12:31:32;;;;;;;10.52;1.00;;;16.70;99.90;;;;;;4990624;28;20058;-55
2022/11/09 12:34:13;;;;;;;11.13;0.90;;;16.60;99.90;;;;;;4998616;28;20040;-59
2022/11/09 12:36:51;;;;;;;6.03;0.70;;;16.50;99.90;;;;;;5001302;28;20101;-57
2022/11/09 12:39:28;;;;;;;6.07;1.02;;;16.50;99.90;;;;;;5008828;28;20084;-59
2022/11/09 12:42:00;;;;;;;5.82;1.10;;;16.50;99.90;;;;;;4996621;28;20027;-57
2022/11/09 12:44:30;;;;;;;6.50;0.80;;;16.60;99.90;;;;;;4999887;28;20043;-57
2022/11/09 12:47:04;;;;;;;3.40;0.80;;;16.60;99.90;;;;;;5004463;28;20026;-57
2022/11/09 12:49:35;;;;;;;;;;;16.60;99.90;;;;;;5002314;28;20040;-57
2022/11/09 12:52:06;;;;;;;6.88;0.70;;;16.60;99.90;;;;;;4978539;28;20410;-58
2022/11/09 12:54:38;;;;;;;9.27;0.85;;;16.60;99.90;;;;;;5004752;28;20209;-58
2022/11/09 12:57:10;;;;;;;6.47;1.00;;;16.60;99.90;;;;;;4997762;28;20027;-57
2022/11/09 12:59:48;;;;;;;5.13;1.00;;;16.60;99.90;;;;;;4994038;28;20033;-54